Time;durP1;ratioP1;P1;durP2;ratioP2;P2;SDS_P1;SDS_P2;PMS_P1;PMS_P2;Temp;Humidity;BMP_temperature;BMP_pressure;BME280_temperature;BME280_humidity;BME280_pressure;Samples;Min_cycle;Max_cycle;Signal;HPM_P1;HPM_P2
2022/12/24 00:02:14;;;;;;;26.53;5.17;;;13.90;95.00;;;;;;5045342;28;20214;-93
2022/12/24 00:04:48;;;;;;;27.20;5.40;;;13.90;95.10;;;;;;5044403;28;20255;-94
2022/12/24 00:07:17;;;;;;;27.07;5.40;;;13.90;95.10;;;;;;5043799;28;20572;-92
2022/12/24 00:10:03;;;;;;;22.93;5.70;;;13.90;95.10;;;;;;5042859;28;20676;-94
2022/12/24 00:12:36;;;;;;;31.13;5.77;;;13.90;95.20;;;;;;5035046;28;20207;-92
2022/12/24 00:15:11;;;;;;;31.37;5.87;;;13.90;95.10;;;;;;5024375;28;20228;-92
2022/12/24 00:17:43;;;;;;;29.57;6.53;;;13.90;95.20;;;;;;5022925;28;20538;-91
2022/12/24 00:20:17;;;;;;;20.07;4.73;;;13.90;95.30;;;;;;5030633;28;20229;-94
2022/12/24 00:22:58;;;;;;;26.53;5.63;;;13.90;95.30;;;;;;5029469;28;20613;-94
2022/12/24 00:25:29;;;;;;;25.67;5.27;;;13.90;95.30;;;;;;5025639;28;20238;-94
2022/12/24 00:28:11;;;;;;;31.87;4.97;;;13.90;95.40;;;;;;5023636;28;20207;-93
2022/12/24 00:30:49;;;;;;;17.30;5.17;;;13.90;95.40;;;;;;5007723;28;20232;-95
2022/12/24 00:33:33;;;;;;;21.23;4.80;;;14.00;95.40;;;;;;5025402;28;20207;-93
2022/12/24 00:36:14;;;;;;;21.60;5.33;;;13.90;95.40;;;;;;5042564;28;20215;-93
2022/12/24 00:38:55;;;;;;;24.30;5.87;;;14.00;95.30;;;;;;5036241;28;20198;-91
2022/12/24 00:41:36;;;;;;;27.97;5.20;;;14.00;95.30;;;;;;5041677;28;20213;-92
2022/12/24 00:44:10;;;;;;;18.47;4.23;;;14.00;95.20;;;;;;5040204;28;20258;-94
2022/12/24 00:49:30;;;;;;;18.00;5.27;;;14.00;95.10;;;;;;5050108;28;20219;-93
2022/12/24 00:52:07;;;;;;;21.90;4.20;;;14.00;95.10;;;;;;5050850;28;20202;-90
2022/12/24 00:54:44;;;;;;;27.00;7.50;;;14.00;95.10;;;;;;5026776;28;20211;-93
2022/12/24 00:57:14;;;;;;;20.57;4.80;;;14.10;95.20;;;;;;5042619;28;20222;-94
2022/12/24 00:59:49;;;;;;;11.87;4.13;;;14.00;95.00;;;;;;5043402;28;20199;-94
2022/12/24 01:02:22;;;;;;;18.93;4.33;;;14.10;95.20;;;;;;5024283;28;20209;-92
2022/12/24 01:05:09;;;;;;;16.93;4.10;;;14.00;95.10;;;;;;5021526;28;20324;-93
2022/12/24 01:07:42;;;;;;;16.47;4.03;;;14.10;95.10;;;;;;5023692;28;20733;-94
2022/12/24 01:10:21;;;;;;;14.23;3.83;;;14.10;95.10;;;;;;5030981;28;20669;-95
2022/12/24 01:15:33;;;;;;;18.57;4.37;;;14.10;95.20;;;;;;5038763;28;20215;-94
2022/12/24 01:18:03;;;;;;;16.43;4.50;;;14.10;95.20;;;;;;5027318;28;20235;-93
2022/12/24 01:20:40;;;;;;;14.10;3.67;;;14.10;95.20;;;;;;5027801;28;20199;-93
2022/12/24 01:23:10;;;;;;;18.27;4.27;;;14.10;95.30;;;;;;5040868;28;20200;-94
2022/12/24 01:25:40;;;;;;;15.83;3.77;;;14.10;95.70;;;;;;5041427;28;20257;-93
2022/12/24 01:28:12;;;;;;;21.27;3.83;;;14.10;95.40;;;;;;5030395;28;20656;-94
2022/12/24 01:30:45;;;;;;;19.50;4.30;;;14.10;95.40;;;;;;5020753;28;20265;-94
2022/12/24 01:33:34;;;;;;;23.80;4.50;;;14.10;95.60;;;;;;5024573;28;20197;-93
2022/12/24 01:36:06;;;;;;;22.43;4.43;;;14.20;95.60;;;;;;5029320;28;20227;-95
2022/12/24 01:38:55;;;;;;;20.60;4.10;;;14.20;95.60;;;;;;5047615;28;20389;-94
2022/12/24 01:44:26;;;;;;;18.23;4.40;;;14.20;95.60;;;;;;5022116;28;20208;-94
2022/12/24 01:47:16;;;;;;;18.30;5.10;;;14.20;95.60;;;;;;5048425;28;20198;-94
2022/12/24 01:50:02;;;;;;;17.07;3.63;;;14.20;95.60;;;;;;5048655;28;20223;-93
2022/12/24 01:52:37;;;;;;;26.97;5.03;;;14.20;95.60;;;;;;5043083;28;20663;-94
2022/12/24 01:55:08;;;;;;;23.67;5.43;;;14.20;95.60;;;;;;5037845;28;20195;-93
2022/12/24 01:57:54;;;;;;;25.63;5.33;;;14.20;95.60;;;;;;5045040;28;20611;-94
2022/12/24 02:00:23;;;;;;;22.57;5.27;;;14.20;95.50;;;;;;5052820;28;20210;-93
2022/12/24 02:02:57;;;;;;;25.30;5.13;;;14.20;95.70;;;;;;5049126;28;20199;-93
2022/12/24 02:05:39;;;;;;;18.47;4.17;;;14.20;95.40;;;;;;5028657;28;20227;-94
2022/12/24 02:08:15;;;;;;;28.30;5.77;;;14.20;95.40;;;;;;5023015;28;20204;-93
2022/12/24 02:10:46;;;;;;;21.30;5.37;;;14.20;95.40;;;;;;5039115;28;20290;-94
2022/12/24 02:16:13;;;;;;;28.80;5.80;;;14.20;95.30;;;;;;5039438;28;20554;-95
2022/12/24 02:18:57;;;;;;;19.67;5.50;;;14.20;95.20;;;;;;5037738;28;20215;-94
2022/12/24 02:21:59;;;;;;;26.10;5.50;;;14.20;95.10;;;;;;5025122;28;20227;-93
2022/12/24 02:24:59;;;;;;;22.60;4.93;;;14.10;95.10;;;;;;5018980;28;20206;-94
2022/12/24 02:27:38;;;;;;;23.43;4.77;;;14.20;95.10;;;;;;5026497;28;20456;-92
2022/12/24 02:30:47;;;;;;;20.73;5.53;;;14.10;95.10;;;;;;5027875;28;20615;-92
2022/12/24 02:33:41;;;;;;;18.07;4.50;;;14.20;95.10;;;;;;5039616;28;20214;-93
2022/12/24 02:36:25;;;;;;;30.63;6.57;;;14.10;95.10;;;;;;5037988;28;20203;-94
2022/12/24 02:39:14;;;;;;;22.80;4.20;;;14.10;95.00;;;;;;5039434;28;20214;-94
2022/12/24 02:42:15;;;;;;;18.77;4.37;;;14.10;95.10;;;;;;5040455;28;20199;-94
2022/12/24 02:45:02;;;;;;;18.37;4.40;;;14.10;95.10;;;;;;5045969;28;20202;-95
2022/12/24 02:47:34;;;;;;;21.57;4.67;;;14.00;95.00;;;;;;5019240;28;20215;-94
2022/12/24 02:50:09;;;;;;;20.03;5.20;;;14.00;95.20;;;;;;5019007;28;20216;-95
2022/12/24 02:52:46;;;;;;;18.93;4.87;;;14.10;95.30;;;;;;5018950;28;20207;-95
2022/12/24 02:55:17;;;;;;;26.67;4.63;;;14.10;95.40;;;;;;5028930;28;20209;-94
2022/12/24 02:58:23;;;;;;;17.80;4.23;;;14.10;95.50;;;;;;5039967;28;20230;-93
2022/12/24 03:01:15;;;;;;;24.47;5.23;;;14.00;95.50;;;;;;5039201;28;20214;-94
2022/12/24 03:04:00;;;;;;;23.50;4.73;;;14.00;95.40;;;;;;5004585;28;20220;-94
2022/12/24 03:06:41;;;;;;;24.97;5.47;;;14.00;95.50;;;;;;5034623;28;20218;-95
2022/12/24 03:09:21;;;;;;;27.33;6.03;;;14.00;95.50;;;;;;5054647;28;20258;-94
2022/12/24 03:14:55;;;;;;;18.30;4.67;;;14.00;95.40;;;;;;5042209;28;20214;-93
2022/12/24 03:17:26;;;;;;;19.47;4.97;;;14.00;95.30;;;;;;5039249;28;20272;-95
2022/12/24 03:19:57;;;;;;;16.83;4.27;;;14.00;95.60;;;;;;5028751;28;20601;-94
2022/12/24 03:22:39;;;;;;;21.80;4.73;;;14.00;95.20;;;;;;5036187;28;20207;-92
2022/12/24 03:25:09;;;;;;;19.10;4.77;;;14.10;95.30;;;;;;5037072;28;20211;-96
2022/12/24 03:27:48;;;;;;;17.53;4.47;;;14.10;95.20;;;;;;5037901;28;20213;-93
2022/12/24 03:30:20;;;;;;;22.57;4.10;;;14.00;95.20;;;;;;5038703;28;20206;-94
2022/12/24 03:32:49;;;;;;;21.67;5.27;;;14.00;95.10;;;;;;5038015;28;20215;-92
2022/12/24 03:35:22;;;;;;;19.07;5.10;;;14.00;95.00;;;;;;5029760;28;20216;-93
2022/12/24 03:41:05;;;;;;;21.07;5.40;;;14.00;95.00;;;;;;5049402;28;20209;-92
2022/12/24 03:43:51;;;;;;;22.53;5.17;;;14.00;94.90;;;;;;5047823;28;20209;-94
2022/12/24 03:46:27;;;;;;;16.10;4.47;;;13.90;94.90;;;;;;5030007;28;21045;-94
2022/12/24 03:49:00;;;;;;;22.07;3.90;;;13.90;94.80;;;;;;5018608;28;20201;-95
2022/12/24 03:51:32;;;;;;;19.13;4.20;;;13.90;94.80;;;;;;5018356;28;20213;-94
2022/12/24 03:54:09;;;;;;;17.37;4.27;;;13.90;94.80;;;;;;5017551;28;20206;-93
2022/12/24 03:56:40;;;;;;;17.30;4.37;;;13.90;94.70;;;;;;5017388;28;20224;-94
2022/12/24 03:59:08;;;;;;;21.33;5.07;;;13.90;94.80;;;;;;5018357;28;20642;-95
2022/12/24 04:01:41;;;;;;;18.33;4.70;;;13.80;94.70;;;;;;5021819;28;20217;-95
2022/12/24 04:04:12;;;;;;;20.67;4.70;;;13.80;94.70;;;;;;5037398;28;20199;-95
2022/12/24 04:06:52;;;;;;;15.83;4.37;;;13.80;94.70;;;;;;5026510;28;20222;-93
2022/12/24 04:09:34;;;;;;;19.13;4.53;;;13.80;94.60;;;;;;5050202;28;20227;-92
2022/12/24 04:12:09;;;;;;;27.03;6.97;;;13.80;94.60;;;;;;5034821;28;20214;-92
2022/12/24 04:14:46;;;;;;;18.40;4.30;;;13.80;94.60;;;;;;5017994;28;20192;-92
2022/12/24 04:17:20;;;;;;;19.63;4.87;;;13.70;94.60;;;;;;5042182;28;20210;-92
2022/12/24 04:20:13;;;;;;;24.50;4.60;;;13.70;94.60;;;;;;5054151;28;20207;-92
2022/12/24 04:22:42;;;;;;;23.40;4.73;;;13.70;94.70;;;;;;5042914;28;20223;-91
2022/12/24 04:25:20;;;;;;;23.80;5.43;;;13.70;94.70;;;;;;5036916;28;20212;-93
2022/12/24 04:27:49;;;;;;;25.20;5.10;;;13.70;94.70;;;;;;5018030;28;20239;-91
2022/12/24 04:30:23;;;;;;;32.80;6.27;;;13.60;94.80;;;;;;5013814;28;20231;-93
2022/12/24 04:33:03;;;;;;;20.07;5.00;;;13.60;94.80;;;;;;5021070;28;20202;-92
2022/12/24 04:35:48;;;;;;;19.40;4.63;;;13.70;94.90;;;;;;5044953;28;20208;-93
2022/12/24 04:38:16;;;;;;;19.17;3.93;;;13.60;94.90;;;;;;5056537;28;20187;-92
2022/12/24 04:41:06;;;;;;;22.90;4.30;;;13.60;94.90;;;;;;5055181;28;20203;-92
2022/12/24 04:43:50;;;;;;;25.37;4.57;;;13.60;94.90;;;;;;5039751;28;20196;-92
2022/12/24 04:46:34;;;;;;;24.60;5.40;;;13.60;95.00;;;;;;5021350;28;20643;-91
2022/12/24 04:49:11;;;;;;;19.27;4.47;;;13.60;95.00;;;;;;5035200;28;20211;-92
2022/12/24 04:51:50;;;;;;;25.50;5.53;;;13.60;94.90;;;;;;5040018;28;20297;-93
2022/12/24 04:54:25;;;;;;;28.33;6.17;;;13.60;94.90;;;;;;5040534;28;20227;-92
2022/12/24 04:56:55;;;;;;;25.33;4.90;;;13.60;95.00;;;;;;5022196;28;20227;-93
2022/12/24 04:59:32;;;;;;;28.33;5.07;;;13.60;95.00;;;;;;5021986;28;20222;-92
2022/12/24 05:02:01;;;;;;;24.90;6.57;;;13.60;95.10;;;;;;5012674;28;20238;-93
2022/12/24 05:04:37;;;;;;;17.53;5.13;;;13.60;95.20;;;;;;5021004;28;20575;-91
2022/12/24 05:07:10;;;;;;;20.30;4.40;;;13.60;95.30;;;;;;5022502;28;20241;-91
2022/12/24 05:09:44;;;;;;;18.87;5.43;;;13.60;95.30;;;;;;5022860;28;20217;-92
2022/12/24 05:12:17;;;;;;;22.87;5.27;;;13.60;95.30;;;;;;5036906;28;20213;-92
2022/12/24 05:14:45;;;;;;;21.17;4.77;;;13.60;95.30;;;;;;5038625;28;20206;-92
2022/12/24 05:17:17;;;;;;;24.97;5.50;;;13.60;95.30;;;;;;5045677;28;20202;-92
2022/12/24 05:19:45;;;;;;;24.67;5.53;;;13.60;95.30;;;;;;5037906;28;20206;-93
2022/12/24 05:28:17;;;;;;;19.00;4.53;;;13.60;95.30;;;;;;5020935;28;20246;-92
2022/12/24 05:30:49;;;;;;;13.17;4.40;;;13.60;95.30;;;;;;5019877;28;20209;-92
2022/12/24 05:33:24;;;;;;;30.77;6.07;;;13.60;95.30;;;;;;5034603;28;20306;-92
2022/12/24 05:36:06;;;;;;;22.60;5.23;;;13.60;95.30;;;;;;5050450;28;20230;-92
2022/12/24 05:38:38;;;;;;;23.30;6.00;;;13.60;95.30;;;;;;5050045;28;20569;-93
2022/12/24 05:41:12;;;;;;;18.63;5.33;;;13.60;95.30;;;;;;5041063;28;20290;-95
2022/12/24 05:44:06;;;;;;;20.33;4.33;;;13.60;95.30;;;;;;5008284;28;20721;-93
2022/12/24 05:46:37;;;;;;;27.60;4.87;;;13.60;95.30;;;;;;5029461;28;20234;-93
2022/12/24 05:49:08;;;;;;;21.20;6.27;;;13.60;95.30;;;;;;5022550;28;20206;-93
2022/12/24 05:51:45;;;;;;;26.70;4.73;;;13.60;95.30;;;;;;5033691;28;20233;-93
2022/12/24 05:54:19;;;;;;;28.77;6.20;;;13.60;95.30;;;;;;5041734;28;20218;-92
2022/12/24 05:56:52;;;;;;;23.73;5.63;;;13.60;95.30;;;;;;5039952;28;20221;-92
2022/12/24 05:59:24;;;;;;;25.90;5.63;;;13.60;95.30;;;;;;5012160;28;20303;-92
2022/12/24 06:02:01;;;;;;;20.57;4.77;;;13.60;95.30;;;;;;5021964;28;20272;-93
2022/12/24 06:04:30;;;;;;;16.57;4.60;;;13.60;95.30;;;;;;5020895;28;20215;-92
2022/12/24 06:07:01;;;;;;;20.27;4.60;;;13.60;95.30;;;;;;5040268;28;20235;-93
2022/12/24 06:09:33;;;;;;;20.70;4.93;;;13.60;95.30;;;;;;5040522;28;20586;-93
2022/12/24 06:12:07;;;;;;;23.20;4.40;;;13.60;95.30;;;;;;5040518;28;20621;-92
2022/12/24 06:14:47;;;;;;;21.90;4.23;;;13.60;95.30;;;;;;5030736;28;20212;-92
2022/12/24 06:17:25;;;;;;;13.53;4.47;;;13.60;95.30;;;;;;5021714;28;20211;-92
2022/12/24 06:19:54;;;;;;;15.90;4.53;;;13.60;95.30;;;;;;5019978;28;20198;-92
2022/12/24 06:22:24;;;;;;;23.87;5.03;;;13.60;95.30;;;;;;5020657;28;20216;-92
2022/12/24 06:24:51;;;;;;;21.37;5.77;;;13.50;95.30;;;;;;5032822;28;20255;-92
2022/12/24 06:27:20;;;;;;;18.10;4.57;;;13.60;95.50;;;;;;5029232;28;20236;-93
2022/12/24 06:29:57;;;;;;;19.13;4.87;;;13.60;95.60;;;;;;5036387;28;20214;-92
2022/12/24 06:32:44;;;;;;;21.43;4.60;;;13.60;95.70;;;;;;5053247;28;20236;-92
2022/12/24 06:38:15;;;;;;;26.57;6.07;;;13.60;95.80;;;;;;5042410;28;20221;-95
2022/12/24 06:40:46;;;;;;;23.57;5.03;;;13.60;95.70;;;;;;5043287;28;20202;-93
2022/12/24 06:43:20;;;;;;;23.73;4.87;;;13.60;95.70;;;;;;5025565;28;20208;-93
2022/12/24 06:45:53;;;;;;;24.30;4.70;;;13.60;95.70;;;;;;5046144;28;20212;-93
2022/12/24 06:48:27;;;;;;;21.97;5.37;;;13.60;95.80;;;;;;5050364;28;20258;-94
2022/12/24 06:51:04;;;;;;;16.37;4.40;;;13.60;95.90;;;;;;5036645;28;20193;-93
2022/12/24 06:53:41;;;;;;;24.60;5.53;;;13.60;95.80;;;;;;5046898;28;20198;-94
2022/12/24 06:56:21;;;;;;;20.40;4.30;;;13.60;95.80;;;;;;5038662;28;20214;-93
2022/12/24 06:58:51;;;;;;;20.30;5.80;;;13.60;95.80;;;;;;5041890;28;20246;-91
2022/12/24 07:01:25;;;;;;;24.63;4.93;;;13.60;95.70;;;;;;5041926;28;20237;-94
2022/12/24 07:03:58;;;;;;;24.77;5.70;;;13.60;95.70;;;;;;5049096;28;20198;-93
2022/12/24 07:06:29;;;;;;;22.80;5.77;;;13.60;96.10;;;;;;5035323;28;20293;-94
2022/12/24 07:08:58;;;;;;;25.77;5.43;;;13.60;96.00;;;;;;5043566;28;20213;-94
2022/12/24 07:11:29;;;;;;;17.93;4.80;;;13.70;95.70;;;;;;5044036;28;20264;-94
2022/12/24 07:13:57;;;;;;;19.93;4.67;;;13.60;95.60;;;;;;5039173;28;20202;-95
2022/12/24 07:16:34;;;;;;;26.00;5.60;;;13.60;95.60;;;;;;5031164;28;20207;-93
2022/12/24 07:19:03;;;;;;;36.27;6.27;;;13.60;95.60;;;;;;5036286;28;20203;-95
2022/12/24 07:21:33;;;;;;;16.83;5.23;;;13.60;95.60;;;;;;5040093;28;20248;-95
2022/12/24 07:24:09;;;;;;;22.63;4.77;;;13.70;95.60;;;;;;5034550;28;20210;-94
2022/12/24 07:26:54;;;;;;;20.67;5.17;;;13.60;95.60;;;;;;5033856;28;20227;-95
2022/12/24 07:29:22;;;;;;;17.93;5.43;;;13.60;95.60;;;;;;5020235;28;20223;-95
2022/12/24 07:31:52;;;;;;;21.97;5.17;;;13.60;95.60;;;;;;5018196;28;20199;-95
2022/12/24 07:34:23;;;;;;;18.57;5.37;;;13.70;95.60;;;;;;5023602;28;20580;-94
2022/12/24 07:36:53;;;;;;;22.93;6.10;;;13.70;95.60;;;;;;5037208;28;20198;-95
2022/12/24 07:39:21;;;;;;;25.00;5.73;;;13.70;95.50;;;;;;5036897;28;20625;-92
2022/12/24 07:41:53;;;;;;;25.77;4.77;;;13.70;95.60;;;;;;5024286;28;20208;-95
2022/12/24 07:44:25;;;;;;;24.77;6.07;;;13.70;95.50;;;;;;5037119;28;20254;-95
2022/12/24 07:47:01;;;;;;;27.13;5.77;;;13.70;95.40;;;;;;5037320;28;20225;-94
2022/12/24 07:49:42;;;;;;;31.40;5.40;;;13.70;95.50;;;;;;5019317;28;20202;-93
2022/12/24 07:52:09;;;;;;;21.33;5.23;;;13.70;95.50;;;;;;5036589;28;20215;-93
2022/12/24 07:54:37;;;;;;;23.97;5.80;;;13.70;95.40;;;;;;5037039;28;20212;-95
2022/12/24 07:57:13;;;;;;;30.83;6.50;;;13.70;95.40;;;;;;5037117;28;20625;-96
2022/12/24 07:59:49;;;;;;;21.37;4.63;;;13.70;95.40;;;;;;5037130;28;20238;-94
2022/12/24 08:02:22;;;;;;;23.53;5.83;;;13.70;95.40;;;;;;5030344;28;20211;-94
2022/12/24 08:04:53;;;;;;;25.23;4.77;;;13.70;95.50;;;;;;5017587;28;20235;-95
2022/12/24 08:07:31;;;;;;;20.07;5.10;;;13.70;95.60;;;;;;5026565;28;20681;-94
2022/12/24 08:10:07;;;;;;;33.33;6.07;;;13.70;95.50;;;;;;5036579;28;20214;-95
2022/12/24 08:12:37;;;;;;;24.37;6.53;;;13.70;95.40;;;;;;5031640;28;20199;-95
2022/12/24 08:15:09;;;;;;;20.97;5.50;;;13.70;95.30;;;;;;5035445;28;20204;-94
2022/12/24 08:17:38;;;;;;;19.33;5.13;;;13.70;95.30;;;;;;5034985;28;20661;-95
2022/12/24 08:20:10;;;;;;;28.10;5.70;;;13.70;95.30;;;;;;5034351;28;20260;-94
2022/12/24 08:22:46;;;;;;;19.63;5.00;;;13.70;95.30;;;;;;5053129;28;20216;-95
2022/12/24 08:25:18;;;;;;;26.27;5.57;;;13.70;95.30;;;;;;5044390;28;20257;-94
2022/12/24 08:27:47;;;;;;;24.73;5.17;;;13.70;95.30;;;;;;5040173;28;20258;-95
2022/12/24 08:30:25;;;;;;;27.27;6.03;;;13.70;95.30;;;;;;5041221;28;20222;-93
2022/12/24 08:33:05;;;;;;;31.10;5.33;;;13.70;95.40;;;;;;5038486;28;20322;-95
2022/12/24 08:35:34;;;;;;;23.17;5.33;;;13.70;95.30;;;;;;5041139;28;20194;-94
2022/12/24 08:38:09;;;;;;;29.37;6.77;;;13.70;95.30;;;;;;5040319;28;20226;-94
2022/12/24 08:40:37;;;;;;;38.80;17.17;;;13.70;95.30;;;;;;5032904;28;20238;-95
2022/12/24 08:43:07;;;;;;;79.67;42.70;;;13.70;95.30;;;;;;5039661;28;20207;-94
2022/12/24 08:45:38;;;;;;;55.77;31.30;;;13.70;95.30;;;;;;5040126;28;20182;-94
2022/12/24 08:48:18;;;;;;;27.07;9.13;;;13.70;95.30;;;;;;5039705;28;20223;-93
2022/12/24 08:50:50;;;;;;;21.47;6.27;;;13.70;95.30;;;;;;5022051;28;20198;-94
2022/12/24 08:53:39;;;;;;;22.33;6.07;;;13.70;95.30;;;;;;5039743;28;20620;-95
2022/12/24 08:56:10;;;;;;;19.87;6.47;;;13.70;95.30;;;;;;5037672;28;20229;-93
2022/12/24 08:58:41;;;;;;;17.20;4.80;;;13.70;95.30;;;;;;5040856;28;20218;-95
2022/12/24 09:01:21;;;;;;;29.77;6.13;;;13.70;95.30;;;;;;4988087;28;20217;-94
2022/12/24 09:03:51;;;;;;;23.80;5.70;;;13.70;95.30;;;;;;5019284;28;20207;-94
2022/12/24 09:06:22;;;;;;;23.90;7.20;;;13.70;95.30;;;;;;5019645;28;20571;-95
2022/12/24 09:08:51;;;;;;;19.67;5.50;;;13.70;95.30;;;;;;5020118;28;20736;-94
2022/12/24 09:11:21;;;;;;;23.03;5.63;;;13.70;95.30;;;;;;5020270;28;20656;-94
2022/12/24 09:13:50;;;;;;;24.77;6.53;;;13.70;95.30;;;;;;5028558;28;20208;-93
2022/12/24 09:16:17;;;;;;;29.13;10.87;;;13.70;95.30;;;;;;5042613;28;20203;-95
2022/12/24 09:18:55;;;;;;;25.87;13.47;;;13.70;95.20;;;;;;5053016;28;20272;-95
2022/12/24 09:21:28;;;;;;;22.37;7.40;;;13.70;95.20;;;;;;5048402;28;20228;-94
2022/12/24 09:23:56;;;;;;;26.60;5.93;;;13.70;95.30;;;;;;5041847;28;20220;-95
2022/12/24 09:26:25;;;;;;;20.93;6.17;;;13.70;95.20;;;;;;5040914;28;20207;-94
2022/12/24 09:28:55;;;;;;;26.93;5.73;;;13.70;95.30;;;;;;5042059;28;20230;-94
2022/12/24 09:31:32;;;;;;;21.33;4.97;;;13.70;95.10;;;;;;5042051;28;20203;-95
2022/12/24 09:34:08;;;;;;;24.83;5.60;;;13.70;95.20;;;;;;5046238;28;20232;-94
2022/12/24 09:36:41;;;;;;;24.77;6.60;;;13.70;95.30;;;;;;5042639;28;20226;-95
2022/12/24 09:39:10;;;;;;;22.97;4.83;;;13.70;95.30;;;;;;5043082;28;20222;-93
2022/12/24 09:41:47;;;;;;;30.30;5.67;;;13.70;95.30;;;;;;5042540;28;20211;-93
2022/12/24 09:44:45;;;;;;;20.17;5.50;;;13.70;95.20;;;;;;5043878;28;20216;-93
2022/12/24 09:47:31;;;;;;;26.33;5.47;;;13.80;95.30;;;;;;5025646;28;20192;-94
2022/12/24 09:50:09;;;;;;;22.10;5.07;;;13.80;95.20;;;;;;5039448;28;20215;-94
2022/12/24 09:52:45;;;;;;;23.80;5.33;;;13.80;95.10;;;;;;5043008;28;20282;-93
2022/12/24 09:55:30;;;;;;;17.87;4.60;;;13.80;94.90;;;;;;5039599;28;20214;-94
2022/12/24 09:58:06;;;;;;;19.43;4.50;;;13.80;94.90;;;;;;5052796;28;20219;-95
2022/12/24 10:00:37;;;;;;;23.03;5.00;;;13.80;94.90;;;;;;5031175;28;20242;-94
2022/12/24 10:03:19;;;;;;;27.17;6.33;;;13.80;94.90;;;;;;5039699;28;20218;-93
2022/12/24 10:06:03;;;;;;;18.20;5.57;;;13.80;94.90;;;;;;5041952;28;20218;-94
2022/12/24 10:11:57;;;;;;;22.90;5.63;;;13.80;94.80;;;;;;4926655;29;20301;-96
2022/12/24 10:15:16;;;;;;;25.23;6.73;;;13.90;94.90;;;;;;4979195;28;20183;-95
2022/12/24 10:17:58;;;;;;;20.50;5.00;;;13.90;94.90;;;;;;4967720;28;20210;-95
2022/12/24 10:20:59;;;;;;;22.57;5.30;;;13.90;95.00;;;;;;5020293;28;20208;-94
2022/12/24 10:23:42;;;;;;;18.40;5.07;;;13.90;95.00;;;;;;5020903;28;20205;-95
2022/12/24 10:26:18;;;;;;;20.67;6.00;;;13.90;95.00;;;;;;5020822;28;20539;-95
2022/12/24 10:28:54;;;;;;;25.23;6.57;;;13.90;94.80;;;;;;5022239;28;20328;-95
2022/12/24 10:31:43;;;;;;;18.80;5.00;;;13.90;94.60;;;;;;5031113;28;20207;-95
2022/12/24 10:34:16;;;;;;;20.30;5.70;;;13.90;94.70;;;;;;5042469;28;20237;-94
2022/12/24 10:36:44;;;;;;;30.70;7.20;;;13.90;94.90;;;;;;5026608;28;20218;-94
2022/12/24 10:39:20;;;;;;;19.30;5.50;;;13.90;94.80;;;;;;5043587;28;20219;-95
2022/12/24 10:41:56;;;;;;;22.17;5.57;;;13.90;94.90;;;;;;5045049;28;20283;-93
2022/12/24 10:44:36;;;;;;;24.90;6.17;;;13.90;95.00;;;;;;5028620;28;20208;-94
2022/12/24 10:47:15;;;;;;;24.87;5.43;;;13.90;95.20;;;;;;5020772;28;20294;-93
2022/12/24 10:50:04;;;;;;;19.47;5.37;;;13.90;95.10;;;;;;5020124;28;20224;-94
2022/12/24 10:52:37;;;;;;;22.40;5.77;;;13.90;95.10;;;;;;5045954;28;20195;-93
2022/12/24 10:55:25;;;;;;;23.07;4.97;;;13.90;95.30;;;;;;5054089;28;20208;-94
2022/12/24 10:58:15;;;;;;;29.50;7.13;;;13.90;95.10;;;;;;5052432;28;20228;-94
2022/12/24 11:01:01;;;;;;;24.23;6.60;;;14.00;95.30;;;;;;5050494;28;20259;-94
2022/12/24 11:03:38;;;;;;;19.87;6.30;;;14.00;95.20;;;;;;5039897;28;20191;-93
2022/12/24 11:06:25;;;;;;;27.97;5.90;;;14.00;95.40;;;;;;5042054;28;20198;-94
2022/12/24 11:09:18;;;;;;;25.30;6.33;;;14.10;95.50;;;;;;5040132;28;20236;-93
2022/12/24 11:12:01;;;;;;;27.93;6.90;;;14.10;95.60;;;;;;5041853;28;20208;-94
2022/12/24 11:14:40;;;;;;;32.27;6.07;;;14.20;95.60;;;;;;5052907;28;20204;-93
2022/12/24 11:17:07;;;;;;;25.17;6.23;;;14.20;95.50;;;;;;5041258;28;20265;-94
2022/12/24 11:19:40;;;;;;;27.80;7.33;;;14.20;95.50;;;;;;5050812;28;20205;-94
2022/12/24 11:22:23;;;;;;;21.80;6.17;;;14.20;95.60;;;;;;5049112;28;20205;-94
2022/12/24 11:25:01;;;;;;;28.10;6.60;;;14.30;95.60;;;;;;5048303;28;20292;-93
2022/12/24 11:27:43;;;;;;;32.83;8.20;;;14.30;95.60;;;;;;5034847;28;20209;-93
2022/12/24 11:30:30;;;;;;;27.77;7.40;;;14.40;95.90;;;;;;5048535;28;20200;-93
2022/12/24 11:33:22;;;;;;;23.57;6.20;;;14.40;95.70;;;;;;5038924;28;20219;-94
2022/12/24 11:36:11;;;;;;;25.10;7.23;;;14.50;95.70;;;;;;5039489;28;20216;-94
2022/12/24 11:38:42;;;;;;;24.00;7.23;;;14.50;95.60;;;;;;5038907;28;20212;-92
2022/12/24 11:41:11;;;;;;;22.70;5.73;;;14.60;95.60;;;;;;5035909;28;20212;-94
2022/12/24 11:43:44;;;;;;;24.43;5.87;;;14.60;95.70;;;;;;5036164;28;20215;-95
2022/12/24 11:46:22;;;;;;;25.20;6.80;;;14.70;95.50;;;;;;5022997;28;20200;-94
2022/12/24 11:49:13;;;;;;;24.30;6.63;;;14.70;95.30;;;;;;5037005;28;20251;-94
2022/12/24 11:52:08;;;;;;;25.93;6.03;;;14.70;95.10;;;;;;5034372;28;20220;-94
2022/12/24 11:54:51;;;;;;;18.73;5.77;;;14.80;95.10;;;;;;5039268;28;20193;-93
2022/12/24 11:57:24;;;;;;;21.77;5.43;;;14.80;95.10;;;;;;5038543;28;20270;-94
2022/12/24 11:59:53;;;;;;;26.63;6.10;;;14.80;94.90;;;;;;5043070;28;20216;-95
2022/12/24 12:02:26;;;;;;;21.53;5.93;;;14.80;95.00;;;;;;5031138;28;20218;-94
2022/12/24 12:04:58;;;;;;;27.17;5.40;;;14.80;95.20;;;;;;5045922;28;20205;-95
2022/12/24 12:07:31;;;;;;;15.57;5.23;;;14.90;95.50;;;;;;5047720;28;20239;-94
2022/12/24 12:10:04;;;;;;;25.93;6.20;;;14.90;95.00;;;;;;5055629;28;20241;-94
2022/12/24 12:12:38;;;;;;;26.33;7.57;;;15.00;95.30;;;;;;5046956;28;20637;-95
2022/12/24 12:15:22;;;;;;;24.60;6.47;;;15.00;95.20;;;;;;5047024;28;20200;-94
2022/12/24 12:17:54;;;;;;;30.07;5.47;;;15.10;95.10;;;;;;5047786;28;20228;-95
2022/12/24 12:20:26;;;;;;;22.37;5.57;;;15.10;95.00;;;;;;5047041;28;20287;-94
2022/12/24 12:23:03;;;;;;;25.67;5.47;;;15.20;94.90;;;;;;5047981;28;20610;-94
2022/12/24 12:25:51;;;;;;;23.23;5.50;;;15.20;94.90;;;;;;5046031;28;20695;-94
2022/12/24 12:28:23;;;;;;;28.33;6.50;;;15.30;94.60;;;;;;5037294;28;20259;-95
2022/12/24 12:31:03;;;;;;;24.87;6.23;;;15.30;94.60;;;;;;5040549;28;20208;-94
2022/12/24 12:33:48;;;;;;;26.20;6.70;;;15.30;94.10;;;;;;5053421;28;20281;-94
2022/12/24 12:36:21;;;;;;;26.43;6.10;;;15.40;93.90;;;;;;5049911;28;20206;-95
2022/12/24 12:38:50;;;;;;;28.27;6.07;;;15.40;94.00;;;;;;5055804;28;20303;-93
2022/12/24 12:41:32;;;;;;;27.80;6.97;;;15.40;94.30;;;;;;5033850;28;20673;-94
2022/12/24 12:44:40;;;;;;;23.50;5.37;;;15.40;94.20;;;;;;5036458;28;20201;-95
2022/12/24 12:47:26;;;;;;;24.07;5.63;;;15.40;93.80;;;;;;5044142;28;20205;-95
2022/12/24 12:50:03;;;;;;;27.50;5.90;;;15.40;93.60;;;;;;5046326;28;20225;-95
2022/12/24 12:52:49;;;;;;;19.30;5.73;;;15.50;93.90;;;;;;5048344;28;20203;-95
2022/12/24 12:55:43;;;;;;;24.23;5.67;;;15.40;93.40;;;;;;5049657;28;20201;-95
2022/12/24 12:58:17;;;;;;;24.20;6.03;;;15.50;93.40;;;;;;5048299;28;20765;-94
2022/12/24 13:00:51;;;;;;;19.73;6.43;;;15.50;93.50;;;;;;5041811;28;20299;-95
2022/12/24 13:03:47;;;;;;;22.90;5.70;;;15.50;93.50;;;;;;5045726;28;20216;-94
2022/12/24 13:07:01;;;;;;;25.80;6.37;;;15.50;93.10;;;;;;5040136;28;20201;-94
2022/12/24 13:09:57;;;;;;;26.43;6.77;;;15.50;93.00;;;;;;5028165;28;20316;-95
2022/12/24 13:12:50;;;;;;;22.60;5.37;;;15.50;92.80;;;;;;5035274;28;20208;-94
2022/12/24 13:15:45;;;;;;;18.37;5.90;;;15.50;92.60;;;;;;5033409;28;20197;-95
2022/12/24 13:18:47;;;;;;;29.03;6.60;;;15.50;93.10;;;;;;5037117;28;20230;-96
2022/12/24 13:21:23;;;;;;;21.40;6.00;;;15.50;92.60;;;;;;5034558;28;20227;-95
2022/12/24 13:24:10;;;;;;;25.87;6.10;;;15.50;92.80;;;;;;5041691;28;20283;-94
2022/12/24 13:26:43;;;;;;;25.03;5.67;;;15.50;92.90;;;;;;5041532;28;20204;-94
2022/12/24 13:29:44;;;;;;;23.40;6.30;;;15.50;93.00;;;;;;5027505;28;20276;-94
2022/12/24 13:33:07;;;;;;;22.50;5.83;;;15.50;93.10;;;;;;5033356;28;20534;-94
2022/12/24 13:36:01;;;;;;;23.00;5.93;;;15.50;92.70;;;;;;5021866;28;20202;-95
2022/12/24 13:38:44;;;;;;;21.90;5.60;;;15.50;92.60;;;;;;5045082;28;20195;-95
2022/12/24 13:41:49;;;;;;;29.33;6.00;;;15.50;92.50;;;;;;5041909;28;20207;-95
2022/12/24 13:44:22;;;;;;;33.47;7.03;;;15.50;92.70;;;;;;5041296;28;20597;-94
2022/12/24 13:46:57;;;;;;;25.63;5.97;;;15.50;92.90;;;;;;5024452;28;20205;-94
2022/12/24 13:49:36;;;;;;;22.67;4.93;;;15.40;93.00;;;;;;5037437;28;20220;-94
2022/12/24 13:52:41;;;;;;;18.27;5.03;;;15.40;93.10;;;;;;5041632;28;20201;-95
2022/12/24 13:55:19;;;;;;;20.47;5.63;;;15.50;93.20;;;;;;5032756;28;20255;-93
2022/12/24 14:01:50;;;;;;;22.20;5.33;;;15.40;92.70;;;;;;5030740;28;20212;-94
2022/12/24 14:04:26;;;;;;;22.67;5.70;;;15.40;92.70;;;;;;5020192;28;20206;-94